Skip Navigation Links
NOAA logo - Click to go to the NOAA homepage
NOAA's National Weather Service
Alaska Aviation Weather Unit
  NWS logo - Click to go to the NWS homepage
Left Navbar Graphic     10 AKDT = 18 GMT

   
NOAA is celebrating 200 years of science, service, and stewardship. Visit the NOAA 200th celebration Web site to learn more.
USA.gov is the U.S. Government's official Web portal to all Federal, state and local government Web resources and services.
Facebook
NWS on Facebook

Important Change Regarding the AAWU Web Presence

 

Over the last several months, the AAWU has been working to navigate its webpages to a nationally supported server. Security, as well as other needs, have necessitated the change.  We have been given an extension for the site changeover while we diligently work at addressing feedback received. As of July 14, 2017, aawu.arh.noaa.gov will be discontinued. The new AAWU web address is weather.gov/aawu. It is now live and will run in-parallel with the old site until it is discontinued on July 14, 2017. Please continue to send any feedback or questions regarding the new webpages to nws.ar.aawu.webauthors@noaa.gov.  Thank you for your patience during this time of transition.
AAWU Home :: Display TAF Add Bookmark
METAR PASX 261256Z AUTO 00000KT 10SM BKN039 BKN055 01/00 A2966 RMK AO2
     SLP052 T00060000 FZRANO $=

SPECI PASX 261310Z AUTO 10003KT 1 3/4SM BR FEW039 00/M01 A2966 RMK AO2
     FZRANO $=

SPECI PASX 261320Z AUTO 00000KT 3SM BR SCT050 00/00 A2966 RMK AO2 FZRANO
     $=

PASX 261356Z AUTO 00000KT 10SM BKN050 OVC055 00/00 A2965 RMK AO2
     SLP051 T00000000 FZRANO $=

METAR PASX 261456Z AUTO 00000KT 10SM OVC031 01/00 A2964 RMK AO2
 SLP048 T00060000 50005 FZRANO $=

METAR PASX 261556Z AUTO 00000KT 10SM FEW038 01/00 A2954 RMK AO2 PRESFR
     SLP014 T00060000 FZRANO $=

METAR PASX 261656Z AUTO 05003KT 10SM CLR 04/04 A2962 RMK AO2 PRESRR
     SLP040 P0001 T00440044 $=

SPECI PASX 261717Z AUTO 06006KT 10SM FEW005 06/05 A2962 RMK AO2 $=

SPECI PASX 261746Z AUTO VRB03KT 10SM BKN005 06/05 A2963 RMK AO2 $=

METAR PASX 261756Z AUTO 06004KT 10SM OVC005 06/05 A2963 RMK AO2
 SLP043 60001 T00610050 10061 20000 51029 $=


NOAA's National Weather Service
Alaska Aviation Weather Unit
6930 Sand Lake Road
Anchorage, AK 99502-1845
Disclaimer
Credits
Glossary
Privacy Policy
About Us
Career Opportunities
Contact AAWU Internet Services Site last modified: April, 17th 2012